Time;durP1;ratioP1;P1;durP2;ratioP2;P2;SDS_P1;SDS_P2;PMS_P1;PMS_P2;Temp;Humidity;BMP_temperature;BMP_pressure;BME280_temperature;BME280_humidity;BME280_pressure;Samples;Min_cycle;Max_cycle;Signal;HPM_P1;HPM_P2
2022/05/27 00:01:55;;;;;;;1.65;0.52;;;;;;;;;;5011188;28;20079;-72
2022/05/27 00:04:21;;;;;;;3.50;0.85;;;;;;;;;;5010058;28;20096;-72
2022/05/27 00:06:47;;;;;;;2.58;0.60;;;;;;;;;;5010844;28;20116;-73
2022/05/27 00:09:13;;;;;;;4.28;0.50;;;;;;;;;;5006211;28;20026;-73
2022/05/27 00:11:40;;;;;;;4.05;0.50;;;;;;;;;;5007092;28;20044;-72
2022/05/27 00:14:06;;;;;;;1.98;0.55;;;;;;;;;;5005328;28;20476;-72
2022/05/27 00:16:32;;;;;;;1.92;0.60;;;;;;;;;;5010104;28;20486;-72
2022/05/27 00:18:58;;;;;;;3.97;0.60;;;;;;;;;;5011701;28;20109;-73
2022/05/27 00:21:24;;;;;;;7.28;0.77;;;;;;;;;;5012266;28;20117;-72
2022/05/27 00:23:51;;;;;;;1.60;0.50;;;;;;;;;;5012734;28;20064;-72
2022/05/27 00:26:17;;;;;;;2.90;0.73;;;;;;;;;;5005213;28;20045;-72
2022/05/27 00:28:43;;;;;;;2.00;0.60;;;;;;;;;;5011004;28;20029;-72
2022/05/27 00:31:09;;;;;;;4.07;0.95;;;;;;;;;;5011822;28;20038;-72
2022/05/27 00:33:37;;;;;;;2.88;0.70;;;;;;;;;;5011360;28;20054;-72
2022/05/27 00:36:08;;;;;;;3.67;0.70;;;;;;;;;;5010337;28;20035;-72
2022/05/27 00:38:34;;;;;;;3.10;0.70;;;;;;;;;;5003973;28;20475;-72
2022/05/27 00:41:00;;;;;;;2.28;0.60;;;;;;;;;;5010811;28;20364;-72
2022/05/27 00:43:26;;;;;;;2.15;0.57;;;;;;;;;;5006719;28;20045;-72
2022/05/27 00:46:01;;;;;;;1.70;0.55;;;;;;;;;;5014158;28;20061;-72
2022/05/27 00:48:27;;;;;;;2.55;0.50;;;;;;;;;;5006323;28;20056;-72
2022/05/27 00:50:54;;;;;;;3.88;0.50;;;;;;;;;;5011019;28;20128;-72
2022/05/27 00:53:25;;;;;;;6.55;0.60;;;;;;;;;;5008499;28;20029;-72
2022/05/27 00:55:55;;;;;;;1.83;0.63;;;;;;;;;;5009403;28;20469;-72
2022/05/27 00:58:27;;;;;;;3.95;0.80;;;;;;;;;;5011482;28;20034;-72
2022/05/27 01:00:53;;;;;;;1.90;0.70;;;;;;;;;;5010902;28;20538;-72
2022/05/27 01:03:19;;;;;;;4.60;0.90;;;;;;;;;;5007959;28;20391;-72
2022/05/27 01:05:46;;;;;;;3.15;0.70;;;;;;;;;;5014186;28;20045;-72
2022/05/27 01:08:13;;;;;;;3.72;0.70;;;;;;;;;;5014825;28;20034;-73
2022/05/27 01:10:45;;;;;;;3.03;0.70;;;;;;;;;;5005980;28;20040;-73
2022/05/27 01:13:40;;;;;;;3.17;0.80;;;;;;;;;;5018049;28;20030;-72
2022/05/27 01:16:25;;;;;;;2.80;0.82;;;;;;;;;;4999719;28;20471;-72
2022/05/27 01:22:01;;;;;;;6.20;0.60;;;;;;;;;;5010282;28;20064;-73
2022/05/27 01:24:30;;;;;;;3.80;1.17;;;;;;;;;;5005129;28;20108;-72
2022/05/27 01:27:02;;;;;;;4.28;0.80;;;;;;;;;;5014050;28;20072;-72
2022/05/27 01:29:28;;;;;;;;;;;;;;;;;;5011571;28;20511;-72
2022/05/27 01:32:16;;;;;;;3.30;0.68;;;;;;;;;;5010544;28;19921;-72
2022/05/27 01:34:48;;;;;;;3.15;0.73;;;;;;;;;;5010196;28;20036;-73
2022/05/27 01:37:20;;;;;;;2.13;0.50;;;;;;;;;;5013385;28;20068;-72
2022/05/27 01:39:52;;;;;;;2.85;0.75;;;;;;;;;;5010838;28;20052;-72
2022/05/27 01:42:19;;;;;;;3.80;0.63;;;;;;;;;;5015266;28;20049;-72
2022/05/27 01:44:49;;;;;;;2.95;0.60;;;;;;;;;;5014292;28;20542;-72
2022/05/27 01:47:22;;;;;;;4.55;1.10;;;;;;;;;;5003513;28;20062;-72
2022/05/27 01:49:50;;;;;;;2.08;0.70;;;;;;;;;;5009570;28;20030;-72
2022/05/27 01:52:19;;;;;;;20.67;1.25;;;;;;;;;;5011797;28;20049;-72
2022/05/27 01:54:48;;;;;;;2.72;0.65;;;;;;;;;;5012289;28;20049;-72
2022/05/27 01:57:24;;;;;;;1.65;0.60;;;;;;;;;;5020981;28;20465;-72
2022/05/27 01:59:50;;;;;;;3.90;0.60;;;;;;;;;;5015495;28;20029;-72
2022/05/27 02:02:18;;;;;;;3.40;0.60;;;;;;;;;;5011381;28;20046;-72
2022/05/27 02:04:54;;;;;;;2.83;0.70;;;;;;;;;;5006271;28;20026;-72
2022/05/27 02:07:24;;;;;;;2.25;0.57;;;;;;;;;;5010342;28;20041;-72
2022/05/27 02:09:57;;;;;;;4.85;0.70;;;;;;;;;;5010839;28;20077;-72
2022/05/27 02:12:38;;;;;;;3.13;0.65;;;;;;;;;;5008550;28;20058;-72
2022/05/27 02:15:10;;;;;;;2.72;0.60;;;;;;;;;;5010350;28;20068;-72
2022/05/27 02:17:42;;;;;;;4.40;0.80;;;;;;;;;;5013024;28;20036;-72
2022/05/27 02:20:08;;;;;;;;;;;;;;;;;;5007541;28;20717;-72
2022/05/27 02:22:44;;;;;;;2.58;1.02;;;;;;;;;;5015418;28;19909;-72
2022/05/27 02:25:16;;;;;;;6.55;0.90;;;;;;;;;;5011340;28;20065;-72
2022/05/27 02:27:46;;;;;;;2.08;0.80;;;;;;;;;;5000856;28;20495;-72
2022/05/27 02:30:13;;;;;;;3.85;0.82;;;;;;;;;;5009971;28;20717;-72
2022/05/27 02:32:41;;;;;;;3.83;0.65;;;;;;;;;;5006934;28;20034;-72
2022/05/27 02:35:17;;;;;;;3.53;0.60;;;;;;;;;;5012667;28;20033;-73
2022/05/27 02:37:49;;;;;;;2.20;0.73;;;;;;;;;;5009254;28;20026;-72
2022/05/27 02:40:17;;;;;;;3.17;0.50;;;;;;;;;;5008337;28;20060;-72
2022/05/27 02:42:49;;;;;;;2.90;0.60;;;;;;;;;;5013797;28;20057;-73
2022/05/27 02:45:30;;;;;;;3.30;0.68;;;;;;;;;;5012415;28;20084;-72
2022/05/27 02:47:56;;;;;;;1.67;0.57;;;;;;;;;;5007429;28;20072;-72
2022/05/27 02:50:38;;;;;;;2.30;0.70;;;;;;;;;;5009870;28;20579;-72
2022/05/27 02:53:22;;;;;;;2.45;0.82;;;;;;;;;;5013060;28;20044;-72
2022/05/27 02:55:48;;;;;;;3.38;0.85;;;;;;;;;;5009463;28;20471;-72
2022/05/27 02:58:14;;;;;;;5.43;0.75;;;;;;;;;;5006716;28;20060;-72
2022/05/27 03:00:43;;;;;;;3.15;0.73;;;;;;;;;;5007704;28;20034;-73
2022/05/27 03:03:09;;;;;;;3.00;0.70;;;;;;;;;;5010520;28;20030;-73
2022/05/27 03:05:41;;;;;;;5.20;0.90;;;;;;;;;;5010976;28;20045;-73
2022/05/27 03:08:28;;;;;;;3.97;0.90;;;;;;;;;;5008955;28;20069;-72
2022/05/27 03:11:06;;;;;;;4.03;0.70;;;;;;;;;;5010928;28;20121;-72
2022/05/27 03:13:43;;;;;;;3.50;0.90;;;;;;;;;;5001545;28;20040;-72
2022/05/27 03:16:24;;;;;;;4.43;0.82;;;;;;;;;;5014604;28;20040;-72
2022/05/27 03:19:08;;;;;;;3.33;0.80;;;;;;;;;;5005427;28;20479;-72
2022/05/27 03:21:41;;;;;;;3.17;0.80;;;;;;;;;;5006460;28;20463;-72
2022/05/27 03:24:38;;;;;;;3.00;0.90;;;;;;;;;;5008241;28;20038;-73
2022/05/27 03:27:07;;;;;;;2.25;0.75;;;;;;;;;;5005976;28;20065;-73
2022/05/27 03:29:41;;;;;;;3.10;0.85;;;;;;;;;;5008716;28;20112;-72
2022/05/27 03:32:16;;;;;;;4.55;1.38;;;;;;;;;;5003160;28;20038;-72
2022/05/27 03:34:53;;;;;;;2.10;0.68;;;;;;;;;;5005461;28;20677;-72
2022/05/27 03:37:19;;;;;;;5.40;0.82;;;;;;;;;;5009768;28;20038;-72
2022/05/27 03:39:51;;;;;;;3.10;0.95;;;;;;;;;;5011451;28;20041;-72
2022/05/27 03:42:19;;;;;;;2.80;1.02;;;;;;;;;;5008881;28;20076;-72
2022/05/27 03:44:50;;;;;;;4.75;1.10;;;;;;;;;;5005148;28;20972;-72
2022/05/27 03:47:17;;;;;;;3.17;1.05;;;;;;;;;;5007428;28;20553;-72
2022/05/27 03:49:42;;;;;;;6.88;1.05;;;;;;;;;;5006764;28;20044;-73
2022/05/27 03:52:14;;;;;;;7.15;1.67;;;;;;;;;;5010233;28;20038;-72
2022/05/27 03:54:40;;;;;;;5.68;0.98;;;;;;;;;;5015100;28;20033;-72
2022/05/27 03:57:06;;;;;;;5.35;0.98;;;;;;;;;;5007841;28;20038;-72
2022/05/27 03:59:32;;;;;;;3.60;1.15;;;;;;;;;;5007299;28;20030;-72
2022/05/27 04:01:58;;;;;;;3.85;1.17;;;;;;;;;;5013096;28;20042;-72
2022/05/27 04:04:26;;;;;;;2.90;1.13;;;;;;;;;;5011845;28;20056;-72
2022/05/27 04:06:52;;;;;;;5.68;1.20;;;;;;;;;;5011638;28;20116;-72
2022/05/27 04:09:19;;;;;;;2.60;0.93;;;;;;;;;;5002169;28;20030;-72
2022/05/27 04:11:45;;;;;;;5.03;0.80;;;;;;;;;;5005391;28;20049;-72
2022/05/27 04:14:12;;;;;;;2.88;0.80;;;;;;;;;;5009334;28;20030;-72
2022/05/27 04:16:38;;;;;;;2.97;0.98;;;;;;;;;;5006536;28;20390;-72
2022/05/27 04:19:04;;;;;;;6.47;0.77;;;;;;;;;;5007664;28;20030;-72
2022/05/27 04:21:30;;;;;;;2.38;0.80;;;;;;;;;;5006053;28;20155;-72
2022/05/27 04:23:56;;;;;;;5.43;1.20;;;;;;;;;;5007476;28;20536;-72
2022/05/27 04:26:23;;;;;;;4.68;0.80;;;;;;;;;;5008113;28;20046;-73
2022/05/27 04:28:49;;;;;;;1.98;0.63;;;;;;;;;;5011305;28;20037;-72
2022/05/27 04:31:15;;;;;;;7.18;1.10;;;;;;;;;;5011206;28;20045;-72
2022/05/27 04:33:41;;;;;;;8.68;1.33;;;;;;;;;;5014070;28;20035;-72
2022/05/27 04:36:08;;;;;;;6.15;1.60;;;;;;;;;;5014421;28;20880;-73
2022/05/27 04:38:34;;;;;;;3.70;1.30;;;;;;;;;;5012699;28;20075;-72
2022/05/27 04:41:01;;;;;;;4.13;0.93;;;;;;;;;;5005328;28;20049;-72
2022/05/27 04:43:27;;;;;;;4.45;1.00;;;;;;;;;;5017771;28;20600;-72
2022/05/27 04:45:53;;;;;;;4.20;0.98;;;;;;;;;;5013750;28;20755;-72
2022/05/27 04:48:19;;;;;;;7.65;1.40;;;;;;;;;;5015244;28;20040;-72
2022/05/27 04:50:46;;;;;;;8.63;0.90;;;;;;;;;;5011372;28;20070;-72
2022/05/27 04:53:12;;;;;;;5.85;1.33;;;;;;;;;;5008699;28;20026;-72
2022/05/27 04:55:39;;;;;;;3.42;0.93;;;;;;;;;;5003441;28;20081;-72
2022/05/27 04:58:06;;;;;;;6.80;1.40;;;;;;;;;;5005746;28;20058;-72
2022/05/27 05:00:36;;;;;;;5.05;1.20;;;;;;;;;;5008252;28;20034;-72
2022/05/27 05:03:02;;;;;;;5.93;1.05;;;;;;;;;;5005341;28;20041;-72
2022/05/27 05:05:30;;;;;;;4.43;1.10;;;;;;;;;;5011055;28;20026;-72
2022/05/27 05:07:59;;;;;;;4.53;1.00;;;;;;;;;;5010141;28;20037;-72
2022/05/27 05:10:25;;;;;;;3.28;1.13;;;;;;;;;;5012519;28;20087;-72
2022/05/27 05:12:51;;;;;;;4.47;0.93;;;;;;;;;;5014918;28;20765;-72
2022/05/27 05:15:19;;;;;;;5.13;1.00;;;;;;;;;;5015871;28;20116;-72
2022/05/27 05:17:45;;;;;;;5.30;0.98;;;;;;;;;;5009259;28;20080;-72
2022/05/27 05:20:12;;;;;;;4.55;0.80;;;;;;;;;;5014706;28;20053;-72
2022/05/27 05:22:39;;;;;;;3.22;0.80;;;;;;;;;;5014421;28;20038;-72
2022/05/27 05:25:05;;;;;;;3.83;1.00;;;;;;;;;;5015662;28;20406;-72
2022/05/27 05:27:31;;;;;;;4.47;0.95;;;;;;;;;;5015749;28;20139;-72
2022/05/27 05:29:58;;;;;;;3.88;1.00;;;;;;;;;;5011214;28;20033;-72
2022/05/27 05:32:24;;;;;;;4.57;1.00;;;;;;;;;;5012651;28;20038;-72
2022/05/27 05:34:50;;;;;;;3.97;1.10;;;;;;;;;;5009431;28;20055;-72
2022/05/27 05:37:16;;;;;;;2.65;0.80;;;;;;;;;;5006113;28;20088;-72
2022/05/27 05:39:44;;;;;;;2.17;0.57;;;;;;;;;;5006439;28;20060;-72
2022/05/27 05:42:10;;;;;;;4.38;0.80;;;;;;;;;;5011163;28;20037;-72
2022/05/27 05:44:36;;;;;;;2.10;0.60;;;;;;;;;;5014922;28;20038;-72
2022/05/27 05:47:03;;;;;;;4.97;0.70;;;;;;;;;;5010293;28;20786;-73
2022/05/27 05:49:30;;;;;;;2.58;0.70;;;;;;;;;;5008885;28;20037;-72
2022/05/27 05:51:57;;;;;;;3.78;0.60;;;;;;;;;;5004856;28;20549;-72
2022/05/27 05:54:24;;;;;;;2.92;0.73;;;;;;;;;;5012172;28;20033;-73
2022/05/27 05:56:50;;;;;;;5.43;0.95;;;;;;;;;;5009544;28;20816;-72
2022/05/27 05:59:17;;;;;;;7.90;1.13;;;;;;;;;;5009650;28;20044;-72
2022/05/27 06:01:43;;;;;;;2.58;1.10;;;;;;;;;;5008425;28;20038;-72
2022/05/27 06:04:10;;;;;;;4.18;0.80;;;;;;;;;;5009926;28;20870;-72
2022/05/27 06:06:36;;;;;;;7.85;1.00;;;;;;;;;;5008942;28;20042;-72
2022/05/27 06:09:02;;;;;;;4.03;0.80;;;;;;;;;;5014082;28;20026;-72
2022/05/27 06:11:28;;;;;;;3.83;0.98;;;;;;;;;;5011968;28;20144;-72
2022/05/27 06:13:54;;;;;;;4.40;0.98;;;;;;;;;;5005941;28;20066;-72
2022/05/27 06:16:20;;;;;;;3.15;0.77;;;;;;;;;;5009577;28;20205;-72
2022/05/27 06:18:47;;;;;;;2.13;0.75;;;;;;;;;;5007918;28;20467;-72
2022/05/27 06:21:13;;;;;;;2.72;0.80;;;;;;;;;;5004350;28;20501;-72
2022/05/27 06:23:39;;;;;;;2.33;0.80;;;;;;;;;;5007907;28;20029;-72
2022/05/27 06:26:08;;;;;;;3.50;0.70;;;;;;;;;;5009427;28;20041;-72
2022/05/27 06:36:48;;;;;;;1.95;0.77;;;;;;;;;;5001041;28;20157;-72
2022/05/27 06:39:15;;;;;;;5.68;1.00;;;;;;;;;;5010060;28;20034;-72
2022/05/27 06:41:41;;;;;;;3.88;0.90;;;;;;;;;;5007428;28;20042;-72
2022/05/27 06:44:09;;;;;;;2.90;0.95;;;;;;;;;;5009317;28;20110;-72
2022/05/27 06:46:36;;;;;;;3.35;0.73;;;;;;;;;;5010406;28;20148;-72
2022/05/27 06:49:02;;;;;;;6.55;1.00;;;;;;;;;;5007291;28;20456;-72
2022/05/27 06:51:29;;;;;;;7.60;0.80;;;;;;;;;;5004870;28;20045;-72
2022/05/27 06:53:55;;;;;;;2.40;0.60;;;;;;;;;;5012708;28;20057;-72
2022/05/27 06:56:22;;;;;;;4.28;0.90;;;;;;;;;;5007977;28;20045;-72
2022/05/27 06:58:48;;;;;;;3.30;0.85;;;;;;;;;;5002713;28;20018;-73
2022/05/27 07:01:16;;;;;;;6.07;0.80;;;;;;;;;;5006279;28;20067;-72
2022/05/27 07:03:42;;;;;;;6.10;0.82;;;;;;;;;;5001586;28;20533;-73
2022/05/27 07:06:09;;;;;;;2.63;0.70;;;;;;;;;;5007845;28;20474;-73
2022/05/27 07:08:36;;;;;;;6.72;0.93;;;;;;;;;;5004130;28;20036;-73
2022/05/27 07:11:03;;;;;;;4.00;0.90;;;;;;;;;;5003801;28;20505;-72
2022/05/27 07:13:29;;;;;;;8.45;0.88;;;;;;;;;;5003507;28;20104;-72
2022/05/27 07:15:55;;;;;;;5.07;0.95;;;;;;;;;;5003505;28;20042;-72
2022/05/27 07:18:21;;;;;;;8.55;1.30;;;;;;;;;;5004255;28;20104;-73
2022/05/27 07:20:47;;;;;;;10.60;1.10;;;;;;;;;;5005001;28;20044;-73
2022/05/27 07:23:13;;;;;;;2.72;0.73;;;;;;;;;;5006144;28;20515;-73
2022/05/27 07:25:40;;;;;;;4.78;1.10;;;;;;;;;;5004624;28;20057;-73
2022/05/27 07:28:07;;;;;;;4.65;0.90;;;;;;;;;;5003601;28;20121;-73
2022/05/27 07:30:36;;;;;;;4.00;0.80;;;;;;;;;;5005446;28;20052;-73
2022/05/27 07:33:02;;;;;;;5.03;0.73;;;;;;;;;;5000942;28;20022;-73
2022/05/27 07:35:28;;;;;;;3.38;0.90;;;;;;;;;;5007946;28;20044;-73
2022/05/27 07:37:54;;;;;;;3.65;1.00;;;;;;;;;;5010954;28;20021;-73
2022/05/27 07:40:21;;;;;;;2.80;0.80;;;;;;;;;;5003695;28;20129;-73
2022/05/27 07:42:48;;;;;;;6.10;0.93;;;;;;;;;;5005809;28;20041;-73
2022/05/27 07:45:15;;;;;;;4.88;0.98;;;;;;;;;;5005361;28;20037;-73
2022/05/27 07:47:41;;;;;;;4.72;1.00;;;;;;;;;;5004646;28;20494;-73
2022/05/27 07:50:07;;;;;;;3.72;0.90;;;;;;;;;;5007501;28;20038;-73
2022/05/27 07:52:34;;;;;;;2.88;0.70;;;;;;;;;;5008028;28;20033;-73
2022/05/27 07:55:01;;;;;;;3.03;0.80;;;;;;;;;;5005789;28;20033;-73
2022/05/27 07:57:28;;;;;;;3.22;0.60;;;;;;;;;;5004890;28;20120;-73
2022/05/27 07:59:54;;;;;;;2.15;0.68;;;;;;;;;;5012807;28;20519;-73
2022/05/27 08:02:21;;;;;;;4.72;0.70;;;;;;;;;;5008502;28;20044;-73
2022/05/27 08:04:47;;;;;;;3.00;0.70;;;;;;;;;;5015457;28;20041;-73
2022/05/27 08:07:13;;;;;;;2.75;0.63;;;;;;;;;;5010609;28;20040;-73
2022/05/27 08:09:39;;;;;;;3.55;0.90;;;;;;;;;;5012545;28;20061;-73
2022/05/27 08:12:06;;;;;;;5.97;0.60;;;;;;;;;;5013294;28;20230;-73
2022/05/27 08:14:32;;;;;;;2.67;0.60;;;;;;;;;;5009159;28;20527;-73
2022/05/27 08:16:58;;;;;;;4.38;0.80;;;;;;;;;;5016821;28;20030;-73
2022/05/27 08:19:25;;;;;;;5.57;0.70;;;;;;;;;;5019701;28;20030;-73
2022/05/27 08:21:51;;;;;;;3.45;0.70;;;;;;;;;;5013205;28;20124;-73
2022/05/27 08:24:17;;;;;;;5.28;0.70;;;;;;;;;;5012817;28;20048;-73
2022/05/27 08:26:43;;;;;;;4.28;0.70;;;;;;;;;;5011996;28;20498;-73
2022/05/27 08:29:09;;;;;;;5.43;0.70;;;;;;;;;;5010063;28;20133;-73
2022/05/27 08:31:36;;;;;;;6.07;0.80;;;;;;;;;;5012423;28;20582;-73
2022/05/27 08:39:33;;;;;;;4.35;0.77;;;;;;;;;;5010931;28;20079;-73
2022/05/27 08:42:06;;;;;;;2.83;0.70;;;;;;;;;;5009644;28;20038;-73
2022/05/27 08:44:43;;;;;;;3.38;1.13;;;;;;;;;;5009489;28;20030;-73
2022/05/27 08:47:24;;;;;;;3.67;0.77;;;;;;;;;;5014407;28;20050;-73
2022/05/27 08:49:53;;;;;;;5.03;0.75;;;;;;;;;;5001185;28;20044;-73
2022/05/27 08:52:24;;;;;;;2.50;0.60;;;;;;;;;;5009966;28;20085;-73
2022/05/27 08:54:53;;;;;;;6.30;0.60;;;;;;;;;;5015597;28;20022;-73
2022/05/27 09:00:26;;;;;;;3.35;0.70;;;;;;;;;;4970349;28;20035;-73
2022/05/27 09:02:55;;;;;;;3.55;0.70;;;;;;;;;;4949766;28;20138;-73
2022/05/27 09:05:44;;;;;;;2.88;0.60;;;;;;;;;;4992197;28;20133;-74
2022/05/27 09:08:17;;;;;;;2.45;0.60;;;;;;;;;;5009856;28;20029;-74
2022/05/27 09:11:02;;;;;;;1.73;0.50;;;;;;;;;;5012049;28;20084;-73
2022/05/27 09:13:41;;;;;;;3.28;0.70;;;;;;;;;;5005556;28;20113;-73
2022/05/27 09:16:11;;;;;;;5.85;1.05;;;;;;;;;;5009192;28;20033;-73
2022/05/27 09:18:40;;;;;;;2.05;0.50;;;;;;;;;;5013662;28;20141;-73
2022/05/27 09:21:10;;;;;;;2.70;0.60;;;;;;;;;;5007952;28;20033;-73
2022/05/27 09:23:44;;;;;;;2.25;0.60;;;;;;;;;;5009601;28;20048;-73
2022/05/27 09:26:25;;;;;;;5.07;0.80;;;;;;;;;;5007801;28;20038;-73
2022/05/27 09:29:10;;;;;;;2.58;0.70;;;;;;;;;;5010997;28;20096;-73
2022/05/27 09:31:38;;;;;;;3.28;0.80;;;;;;;;;;5008019;28;20095;-73
2022/05/27 09:34:04;;;;;;;3.55;0.45;;;;;;;;;;5007243;28;20480;-73
2022/05/27 09:36:35;;;;;;;3.47;0.65;;;;;;;;;;5012678;28;20155;-73
2022/05/27 09:39:02;;;;;;;1.88;0.57;;;;;;;;;;5003476;28;20025;-73
2022/05/27 09:41:31;;;;;;;4.05;0.50;;;;;;;;;;5009324;28;20045;-73
2022/05/27 09:44:17;;;;;;;3.95;0.70;;;;;;;;;;5012358;28;20022;-73
2022/05/27 09:46:44;;;;;;;5.28;0.70;;;;;;;;;;4992178;28;20104;-73
2022/05/27 09:49:10;;;;;;;2.10;0.50;;;;;;;;;;5005621;28;20072;-73
2022/05/27 09:51:37;;;;;;;4.50;0.80;;;;;;;;;;5008620;28;20463;-73
2022/05/27 09:54:19;;;;;;;3.63;0.77;;;;;;;;;;5013646;28;20021;-73
2022/05/27 09:56:45;;;;;;;;;;;;;;;;;;5010933;28;20037;-73
2022/05/27 09:59:20;;;;;;;2.33;0.60;;;;;;;;;;5004838;28;19913;-73
2022/05/27 10:01:47;;;;;;;6.07;0.50;;;;;;;;;;5008552;28;20030;-73
2022/05/27 10:04:14;;;;;;;2.08;0.60;;;;;;;;;;5003714;28;20046;-73
2022/05/27 10:06:40;;;;;;;2.72;0.50;;;;;;;;;;5004914;28;20048;-73
2022/05/27 10:09:26;;;;;;;1.60;0.47;;;;;;;;;;5005851;28;20042;-73
2022/05/27 10:11:53;;;;;;;2.65;0.60;;;;;;;;;;5009168;28;20037;-73
2022/05/27 10:14:29;;;;;;;3.42;0.50;;;;;;;;;;5008707;28;20030;-73
2022/05/27 10:17:16;;;;;;;4.05;0.90;;;;;;;;;;5001952;28;20859;-73
2022/05/27 10:19:47;;;;;;;3.10;0.73;;;;;;;;;;5004767;28;20041;-73
2022/05/27 10:22:24;;;;;;;2.97;0.57;;;;;;;;;;5005123;28;20034;-73
2022/05/27 10:25:13;;;;;;;5.25;0.82;;;;;;;;;;5006282;28;20038;-73
2022/05/27 10:27:51;;;;;;;1.88;0.50;;;;;;;;;;5008276;28;20376;-73
2022/05/27 10:30:23;;;;;;;4.85;0.60;;;;;;;;;;5010144;28;20046;-73
2022/05/27 10:32:49;;;;;;;3.30;0.50;;;;;;;;;;5000370;28;20038;-73
2022/05/27 10:35:22;;;;;;;1.48;0.40;;;;;;;;;;5005087;28;20034;-73
2022/05/27 10:37:47;;;;;;;4.20;0.75;;;;;;;;;;5006079;28;20041;-73
2022/05/27 10:40:24;;;;;;;3.90;0.68;;;;;;;;;;5006661;28;20037;-73
2022/05/27 10:42:51;;;;;;;6.25;0.73;;;;;;;;;;5004760;28;20526;-73
2022/05/27 10:45:24;;;;;;;3.10;0.63;;;;;;;;;;5002845;28;20089;-73
2022/05/27 10:48:09;;;;;;;5.15;0.50;;;;;;;;;;5005718;28;20049;-73
2022/05/27 10:50:46;;;;;;;5.35;0.80;;;;;;;;;;5004396;28;20125;-73
2022/05/27 10:53:12;;;;;;;2.92;0.55;;;;;;;;;;5008650;28;20034;-73
2022/05/27 10:55:45;;;;;;;4.18;0.60;;;;;;;;;;5008367;28;20033;-73
2022/05/27 11:04:00;;;;;;;3.20;0.57;;;;;;;;;;5006769;28;20100;-73
2022/05/27 11:06:59;;;;;;;3.60;0.80;;;;;;;;;;5002800;28;20133;-73
2022/05/27 11:09:40;;;;;;;3.50;0.60;;;;;;;;;;4981186;28;20392;-73
2022/05/27 11:12:06;;;;;;;4.53;0.65;;;;;;;;;;5003114;28;20045;-73
2022/05/27 11:17:32;;;;;;;4.45;0.85;;;;;;;;;;5004456;28;20040;-73
2022/05/27 11:20:13;;;;;;;2.00;0.55;;;;;;;;;;4996379;28;20026;-73
2022/05/27 11:22:45;;;;;;;3.63;0.60;;;;;;;;;;5005813;28;20041;-73
2022/05/27 11:25:30;;;;;;;2.33;0.43;;;;;;;;;;5008240;28;20036;-73
2022/05/27 11:28:02;;;;;;;3.67;1.08;;;;;;;;;;5003400;28;20037;-73
2022/05/27 11:30:47;;;;;;;3.75;0.50;;;;;;;;;;4998522;28;20116;-73
2022/05/27 11:33:32;;;;;;;3.28;0.50;;;;;;;;;;4998789;28;20235;-72
2022/05/27 11:35:59;;;;;;;3.10;0.50;;;;;;;;;;5000169;28;20046;-73
2022/05/27 11:38:39;;;;;;;2.55;0.70;;;;;;;;;;5004624;28;20414;-73
2022/05/27 11:41:16;;;;;;;2.92;0.60;;;;;;;;;;5002429;28;20026;-73
2022/05/27 11:43:42;;;;;;;4.32;0.55;;;;;;;;;;5003305;28;20022;-72
2022/05/27 11:46:23;;;;;;;2.78;0.70;;;;;;;;;;5005365;28;20047;-73
2022/05/27 11:48:55;;;;;;;3.10;0.40;;;;;;;;;;5006938;28;20025;-72
2022/05/27 11:51:54;;;;;;;2.17;0.45;;;;;;;;;;5005109;28;20480;-72
2022/05/27 11:54:23;;;;;;;2.30;0.50;;;;;;;;;;4981424;28;20092;-73
2022/05/27 11:56:56;;;;;;;4.60;0.93;;;;;;;;;;5001270;28;20088;-72
2022/05/27 11:59:26;;;;;;;3.25;0.50;;;;;;;;;;5004029;28;20044;-72
2022/05/27 12:02:01;;;;;;;3.38;0.50;;;;;;;;;;5003413;28;20038;-72
2022/05/27 12:04:36;;;;;;;3.17;0.95;;;;;;;;;;5004396;28;20026;-72
2022/05/27 12:07:09;;;;;;;2.33;0.50;;;;;;;;;;5006462;28;20108;-73
2022/05/27 12:09:53;;;;;;;2.15;0.50;;;;;;;;;;5003981;28;20025;-72
2022/05/27 12:12:23;;;;;;;7.88;0.80;;;;;;;;;;5007645;28;20045;-73
2022/05/27 12:14:53;;;;;;;3.05;0.70;;;;;;;;;;5004208;28;20068;-72
2022/05/27 12:17:20;;;;;;;2.08;0.40;;;;;;;;;;5001822;28;20116;-72
2022/05/27 12:19:52;;;;;;;2.90;0.38;;;;;;;;;;5003506;28;20038;-73
2022/05/27 12:22:27;;;;;;;4.13;0.55;;;;;;;;;;5004398;28;20065;-72
2022/05/27 12:24:58;;;;;;;5.03;0.60;;;;;;;;;;5001523;28;20030;-72
2022/05/27 12:27:25;;;;;;;2.00;0.40;;;;;;;;;;5005167;28;20044;-73
2022/05/27 12:29:51;;;;;;;3.17;0.50;;;;;;;;;;5004579;28;20061;-73
2022/05/27 12:32:18;;;;;;;4.57;0.60;;;;;;;;;;5006016;28;20041;-72
2022/05/27 12:34:45;;;;;;;6.75;1.10;;;;;;;;;;5007011;28;20045;-72
2022/05/27 12:37:14;;;;;;;4.22;0.60;;;;;;;;;;5003118;28;20033;-73
2022/05/27 12:39:42;;;;;;;1.98;0.35;;;;;;;;;;5005876;28;20064;-72
2022/05/27 12:42:14;;;;;;;4.25;0.50;;;;;;;;;;5007584;28;20045;-72
2022/05/27 12:44:40;;;;;;;2.55;0.50;;;;;;;;;;5006336;28;20503;-72
2022/05/27 12:47:12;;;;;;;4.30;0.80;;;;;;;;;;5007624;28;20057;-72
2022/05/27 12:49:44;;;;;;;3.00;0.57;;;;;;;;;;5007524;28;20066;-72
2022/05/27 12:52:29;;;;;;;2.35;0.45;;;;;;;;;;5008494;28;20057;-73
2022/05/27 12:54:58;;;;;;;2.17;0.50;;;;;;;;;;5005625;28;20026;-72
2022/05/27 13:03:30;;;;;;;2.30;0.40;;;;;;;;;;5007529;28;20076;-72
2022/05/27 13:06:01;;;;;;;3.58;0.60;;;;;;;;;;5010320;28;20463;-73
2022/05/27 13:08:32;;;;;;;1.92;0.40;;;;;;;;;;5007954;28;20051;-72
2022/05/27 13:10:58;;;;;;;5.20;0.75;;;;;;;;;;5009125;28;20065;-72
2022/05/27 13:13:28;;;;;;;4.10;0.40;;;;;;;;;;5007160;28;20037;-72
2022/05/27 13:16:05;;;;;;;2.65;0.50;;;;;;;;;;5012866;28;20025;-72
2022/05/27 13:18:31;;;;;;;2.60;0.47;;;;;;;;;;5002549;28;20116;-73
2022/05/27 13:21:20;;;;;;;3.20;0.40;;;;;;;;;;5008661;28;20057;-73
2022/05/27 13:23:54;;;;;;;4.20;0.50;;;;;;;;;;5005018;28;20057;-72
2022/05/27 13:26:31;;;;;;;3.97;0.47;;;;;;;;;;5006043;28;20037;-72
2022/05/27 13:28:58;;;;;;;2.25;0.50;;;;;;;;;;5008190;28;20116;-73
2022/05/27 13:31:26;;;;;;;1.27;0.50;;;;;;;;;;5006410;28;20038;-73
2022/05/27 13:34:00;;;;;;;1.98;0.50;;;;;;;;;;5007030;28;20026;-73
2022/05/27 13:36:28;;;;;;;2.10;0.60;;;;;;;;;;5008121;28;20506;-72
2022/05/27 13:39:02;;;;;;;1.38;0.40;;;;;;;;;;5007399;28;20022;-72
2022/05/27 13:41:31;;;;;;;2.22;0.40;;;;;;;;;;5005438;28;20484;-73
2022/05/27 13:43:57;;;;;;;1.88;0.40;;;;;;;;;;5007184;28;20542;-72
2022/05/27 13:46:36;;;;;;;1.75;0.40;;;;;;;;;;5006321;28;20049;-73
2022/05/27 13:49:07;;;;;;;1.35;0.30;;;;;;;;;;5013038;28;20061;-73
2022/05/27 13:51:40;;;;;;;2.60;0.50;;;;;;;;;;5003632;28;20070;-72
2022/05/27 13:54:13;;;;;;;5.53;0.50;;;;;;;;;;5006449;28;20053;-72
2022/05/27 13:56:43;;;;;;;2.33;0.35;;;;;;;;;;5002644;28;20030;-73
2022/05/27 13:59:16;;;;;;;2.15;0.30;;;;;;;;;;5005182;28;20145;-73
2022/05/27 14:01:42;;;;;;;2.15;0.57;;;;;;;;;;5008751;28;20042;-73
2022/05/27 14:04:14;;;;;;;4.85;0.70;;;;;;;;;;5005970;28;20080;-72
2022/05/27 14:06:40;;;;;;;1.67;0.47;;;;;;;;;;5003929;28;20056;-73
2022/05/27 14:09:20;;;;;;;3.10;0.40;;;;;;;;;;5006883;28;20443;-72
2022/05/27 14:11:49;;;;;;;3.40;0.50;;;;;;;;;;5002527;28;20034;-73
2022/05/27 14:14:20;;;;;;;2.60;0.40;;;;;;;;;;5005887;28;20701;-73
2022/05/27 14:16:46;;;;;;;4.75;0.52;;;;;;;;;;5004818;28;20038;-73
2022/05/27 14:19:20;;;;;;;3.20;0.30;;;;;;;;;;5006450;28;20037;-72
2022/05/27 14:24:53;;;;;;;3.92;0.60;;;;;;;;;;5002295;28;20049;-73
2022/05/27 14:27:20;;;;;;;8.23;0.73;;;;;;;;;;5006737;28;20042;-73
2022/05/27 14:29:46;;;;;;;5.35;0.70;;;;;;;;;;5008695;28;20034;-73
2022/05/27 14:32:18;;;;;;;1.90;0.40;;;;;;;;;;5010491;28;20823;-73
2022/05/27 14:34:45;;;;;;;1.73;0.50;;;;;;;;;;5002508;28;20019;-73
2022/05/27 14:37:14;;;;;;;3.45;0.50;;;;;;;;;;5000055;28;20030;-73
2022/05/27 14:39:42;;;;;;;3.33;0.52;;;;;;;;;;5004269;28;20125;-73
2022/05/27 14:42:08;;;;;;;1.45;0.40;;;;;;;;;;4996469;28;20550;-73
2022/05/27 14:44:42;;;;;;;2.30;0.20;;;;;;;;;;5003042;28;20031;-73
2022/05/27 14:47:22;;;;;;;2.90;0.50;;;;;;;;;;5000490;28;20077;-73
2022/05/27 14:49:52;;;;;;;1.50;0.38;;;;;;;;;;5012319;28;20038;-72
2022/05/27 14:52:32;;;;;;;2.75;0.45;;;;;;;;;;5006171;28;20065;-73
2022/05/27 14:55:01;;;;;;;2.30;0.40;;;;;;;;;;5002266;28;20030;-73
2022/05/27 14:57:30;;;;;;;2.33;0.50;;;;;;;;;;5003188;28;20752;-73
2022/05/27 15:00:06;;;;;;;4.05;0.43;;;;;;;;;;5003381;28;20038;-73
2022/05/27 15:02:48;;;;;;;1.45;0.40;;;;;;;;;;5005671;28;20042;-73
2022/05/27 15:05:35;;;;;;;4.55;0.60;;;;;;;;;;4993510;28;20637;-72
2022/05/27 15:08:03;;;;;;;0.95;0.30;;;;;;;;;;5004216;28;20603;-74
2022/05/27 15:10:40;;;;;;;3.35;0.40;;;;;;;;;;5007208;28;20037;-72
2022/05/27 15:13:29;;;;;;;2.97;0.50;;;;;;;;;;5007548;28;20033;-72
2022/05/27 15:15:56;;;;;;;6.55;0.70;;;;;;;;;;5008144;28;20037;-73
2022/05/27 15:18:26;;;;;;;5.20;0.60;;;;;;;;;;5006857;28;20034;-73
2022/05/27 15:20:55;;;;;;;1.00;0.40;;;;;;;;;;5004398;28;20032;-74
2022/05/27 15:23:28;;;;;;;2.47;0.47;;;;;;;;;;5003735;28;20088;-73
2022/05/27 15:33:06;;;;;;;2.50;0.50;;;;;;;;;;5003589;28;20061;-74
2022/05/27 15:34:17;;;;;;;7.20;0.40;;;;;;;;;;5005469;28;20049;-73
2022/05/27 15:36:43;;;;;;;2.22;0.43;;;;;;;;;;5004435;28;20036;-74
2022/05/27 15:39:09;;;;;;;3.55;0.50;;;;;;;;;;5005662;28;20025;-73
2022/05/27 15:41:35;;;;;;;3.10;0.30;;;;;;;;;;5007586;28;20025;-73
2022/05/27 15:44:01;;;;;;;5.53;0.30;;;;;;;;;;5001324;28;20044;-73
2022/05/27 15:46:27;;;;;;;1.88;0.35;;;;;;;;;;4993000;28;20049;-73